sensor_id;sensor_type;location;lat;lon;timestamp;temperature;humidity
61398;DHT22;47267;48.130;-2.040;2023-01-20T00:00:26;17.80;45.30
61398;DHT22;47267;48.130;-2.040;2023-01-20T00:02:51;17.80;45.20
61398;DHT22;47267;48.130;-2.040;2023-01-20T00:05:17;17.80;45.20
61398;DHT22;47267;48.130;-2.040;2023-01-20T00:07:43;17.80;45.20
61398;DHT22;47267;48.130;-2.040;2023-01-20T00:10:09;17.80;45.20
61398;DHT22;47267;48.130;-2.040;2023-01-20T00:12:34;17.80;45.20
61398;DHT22;47267;48.130;-2.040;2023-01-20T00:15:01;17.80;45.20
61398;DHT22;47267;48.130;-2.040;2023-01-20T00:17:27;17.80;45.20
61398;DHT22;47267;48.130;-2.040;2023-01-20T00:19:53;17.80;45.20
61398;DHT22;47267;48.130;-2.040;2023-01-20T00:22:20;17.80;45.20
61398;DHT22;47267;48.130;-2.040;2023-01-20T00:24:46;17.80;45.20
61398;DHT22;47267;48.130;-2.040;2023-01-20T00:27:11;17.80;45.20
61398;DHT22;47267;48.130;-2.040;2023-01-20T00:29:37;17.80;45.20
61398;DHT22;47267;48.130;-2.040;2023-01-20T00:32:03;17.80;45.10
61398;DHT22;47267;48.130;-2.040;2023-01-20T00:34:28;17.80;45.10
61398;DHT22;47267;48.130;-2.040;2023-01-20T00:36:54;17.70;45.00
61398;DHT22;47267;48.130;-2.040;2023-01-20T00:39:20;17.80;45.10
61398;DHT22;47267;48.130;-2.040;2023-01-20T00:41:45;17.80;45.10
61398;DHT22;47267;48.130;-2.040;2023-01-20T00:44:11;17.80;45.10
61398;DHT22;47267;48.130;-2.040;2023-01-20T00:46:37;17.70;45.00
61398;DHT22;47267;48.130;-2.040;2023-01-20T00:49:02;17.70;45.00
61398;DHT22;47267;48.130;-2.040;2023-01-20T00:51:28;17.70;45.00
61398;DHT22;47267;48.130;-2.040;2023-01-20T00:53:53;17.70;45.00
61398;DHT22;47267;48.130;-2.040;2023-01-20T00:56:19;17.70;45.00
61398;DHT22;47267;48.130;-2.040;2023-01-20T00:58:45;17.70;44.90
61398;DHT22;47267;48.130;-2.040;2023-01-20T01:01:11;17.70;45.00
61398;DHT22;47267;48.130;-2.040;2023-01-20T01:03:37;17.70;45.00
61398;DHT22;47267;48.130;-2.040;2023-01-20T01:06:10;17.70;44.90
61398;DHT22;47267;48.130;-2.040;2023-01-20T01:08:36;17.70;44.90
61398;DHT22;47267;48.130;-2.040;2023-01-20T01:11:02;17.60;44.90
61398;DHT22;47267;48.130;-2.040;2023-01-20T01:13:28;17.60;44.90
61398;DHT22;47267;48.130;-2.040;2023-01-20T01:15:53;17.60;44.90
61398;DHT22;47267;48.130;-2.040;2023-01-20T01:18:19;17.60;44.90
61398;DHT22;47267;48.130;-2.040;2023-01-20T01:20:45;17.60;44.90
61398;DHT22;47267;48.130;-2.040;2023-01-20T01:23:11;17.60;44.90
61398;DHT22;47267;48.130;-2.040;2023-01-20T01:25:37;17.70;44.90
61398;DHT22;47267;48.130;-2.040;2023-01-20T01:28:03;17.60;44.90
61398;DHT22;47267;48.130;-2.040;2023-01-20T01:30:28;17.60;44.90
61398;DHT22;47267;48.130;-2.040;2023-01-20T01:32:54;17.60;44.90
61398;DHT22;47267;48.130;-2.040;2023-01-20T01:35:20;17.60;44.90
61398;DHT22;47267;48.130;-2.040;2023-01-20T01:37:46;17.60;44.90
61398;DHT22;47267;48.130;-2.040;2023-01-20T01:40:11;17.60;44.90
61398;DHT22;47267;48.130;-2.040;2023-01-20T01:42:37;17.60;44.90
61398;DHT22;47267;48.130;-2.040;2023-01-20T01:47:39;17.60;44.80
61398;DHT22;47267;48.130;-2.040;2023-01-20T01:50:07;17.60;44.90
61398;DHT22;47267;48.130;-2.040;2023-01-20T01:52:34;17.60;44.80
61398;DHT22;47267;48.130;-2.040;2023-01-20T01:55:01;17.60;44.80
61398;DHT22;47267;48.130;-2.040;2023-01-20T01:57:28;17.50;44.80
61398;DHT22;47267;48.130;-2.040;2023-01-20T01:59:56;17.50;44.80
61398;DHT22;47267;48.130;-2.040;2023-01-20T02:02:21;17.50;44.80
61398;DHT22;47267;48.130;-2.040;2023-01-20T02:04:47;17.50;44.70
61398;DHT22;47267;48.130;-2.040;2023-01-20T02:07:15;17.60;44.80
61398;DHT22;47267;48.130;-2.040;2023-01-20T02:09:42;17.50;44.80
61398;DHT22;47267;48.130;-2.040;2023-01-20T02:12:11;17.50;44.70
61398;DHT22;47267;48.130;-2.040;2023-01-20T02:14:41;17.50;44.70
61398;DHT22;47267;48.130;-2.040;2023-01-20T02:17:23;17.50;44.70
61398;DHT22;47267;48.130;-2.040;2023-01-20T02:33:51;17.50;44.60
61398;DHT22;47267;48.130;-2.040;2023-01-20T02:36:52;17.40;44.50
61398;DHT22;47267;48.130;-2.040;2023-01-20T02:42:21;17.40;44.50
61398;DHT22;47267;48.130;-2.040;2023-01-20T02:47:18;17.40;44.50
61398;DHT22;47267;48.130;-2.040;2023-01-20T02:50:21;17.40;44.50
61398;DHT22;47267;48.130;-2.040;2023-01-20T02:52:53;17.40;44.50
61398;DHT22;47267;48.130;-2.040;2023-01-20T02:55:41;17.40;44.50
61398;DHT22;47267;48.130;-2.040;2023-01-20T03:01:16;17.40;44.50
61398;DHT22;47267;48.130;-2.040;2023-01-20T03:03:45;17.40;44.50
61398;DHT22;47267;48.130;-2.040;2023-01-20T03:06:21;17.40;44.50
61398;DHT22;47267;48.130;-2.040;2023-01-20T03:08:49;17.40;44.50
61398;DHT22;47267;48.130;-2.040;2023-01-20T03:11:17;17.40;44.60
61398;DHT22;47267;48.130;-2.040;2023-01-20T03:14:05;17.30;44.50
61398;DHT22;47267;48.130;-2.040;2023-01-20T03:16:33;17.30;44.50
61398;DHT22;47267;48.130;-2.040;2023-01-20T03:18:59;17.30;44.50
61398;DHT22;47267;48.130;-2.040;2023-01-20T03:21:25;17.30;44.50
61398;DHT22;47267;48.130;-2.040;2023-01-20T03:23:53;17.30;44.40
61398;DHT22;47267;48.130;-2.040;2023-01-20T03:26:21;17.30;44.40
61398;DHT22;47267;48.130;-2.040;2023-01-20T03:28:48;17.30;44.40
61398;DHT22;47267;48.130;-2.040;2023-01-20T03:33:47;17.30;44.50
61398;DHT22;47267;48.130;-2.040;2023-01-20T03:36:15;17.30;44.50
61398;DHT22;47267;48.130;-2.040;2023-01-20T03:38:42;17.30;44.50
61398;DHT22;47267;48.130;-2.040;2023-01-20T03:44:39;17.30;44.50
61398;DHT22;47267;48.130;-2.040;2023-01-20T03:52:48;17.30;44.40
61398;DHT22;47267;48.130;-2.040;2023-01-20T03:55:30;17.30;44.40
61398;DHT22;47267;48.130;-2.040;2023-01-20T03:58:03;17.30;44.40
61398;DHT22;47267;48.130;-2.040;2023-01-20T04:00:33;17.30;44.40
61398;DHT22;47267;48.130;-2.040;2023-01-20T04:03:04;17.30;44.40
61398;DHT22;47267;48.130;-2.040;2023-01-20T04:05:31;17.30;44.40
61398;DHT22;47267;48.130;-2.040;2023-01-20T04:08:01;17.20;45.10
61398;DHT22;47267;48.130;-2.040;2023-01-20T04:10:28;17.20;44.40
61398;DHT22;47267;48.130;-2.040;2023-01-20T04:12:55;17.20;44.40
61398;DHT22;47267;48.130;-2.040;2023-01-20T04:15:22;17.30;44.40
61398;DHT22;47267;48.130;-2.040;2023-01-20T04:17:48;17.20;44.40
61398;DHT22;47267;48.130;-2.040;2023-01-20T04:20:14;17.20;44.40
61398;DHT22;47267;48.130;-2.040;2023-01-20T04:22:46;17.20;44.40
61398;DHT22;47267;48.130;-2.040;2023-01-20T04:25:29;17.20;44.40
61398;DHT22;47267;48.130;-2.040;2023-01-20T04:27:55;17.20;45.00
61398;DHT22;47267;48.130;-2.040;2023-01-20T04:30:21;17.20;44.40
61398;DHT22;47267;48.130;-2.040;2023-01-20T04:32:46;17.20;44.40
61398;DHT22;47267;48.130;-2.040;2023-01-20T04:35:14;17.20;44.40
61398;DHT22;47267;48.130;-2.040;2023-01-20T04:37:40;17.20;44.40
61398;DHT22;47267;48.130;-2.040;2023-01-20T04:40:07;17.20;44.40
61398;DHT22;47267;48.130;-2.040;2023-01-20T04:42:33;17.20;44.40
61398;DHT22;47267;48.130;-2.040;2023-01-20T04:44:58;17.20;44.40
61398;DHT22;47267;48.130;-2.040;2023-01-20T04:47:24;17.20;44.40
61398;DHT22;47267;48.130;-2.040;2023-01-20T04:49:50;17.20;44.40
61398;DHT22;47267;48.130;-2.040;2023-01-20T04:52:16;17.20;44.40
61398;DHT22;47267;48.130;-2.040;2023-01-20T04:54:41;17.20;44.40
61398;DHT22;47267;48.130;-2.040;2023-01-20T04:57:07;17.20;44.40
61398;DHT22;47267;48.130;-2.040;2023-01-20T04:59:33;17.20;44.40
61398;DHT22;47267;48.130;-2.040;2023-01-20T05:01:58;17.20;44.40
61398;DHT22;47267;48.130;-2.040;2023-01-20T05:04:24;17.20;44.40
61398;DHT22;47267;48.130;-2.040;2023-01-20T05:06:50;17.20;44.30
61398;DHT22;47267;48.130;-2.040;2023-01-20T05:09:15;17.20;44.30
61398;DHT22;47267;48.130;-2.040;2023-01-20T05:11:42;17.20;44.40
61398;DHT22;47267;48.130;-2.040;2023-01-20T05:14:08;17.20;44.30
61398;DHT22;47267;48.130;-2.040;2023-01-20T05:16:34;17.20;44.30
61398;DHT22;47267;48.130;-2.040;2023-01-20T05:19:00;17.20;44.30
61398;DHT22;47267;48.130;-2.040;2023-01-20T05:21:26;17.20;44.40
61398;DHT22;47267;48.130;-2.040;2023-01-20T05:23:55;17.20;44.30
61398;DHT22;47267;48.130;-2.040;2023-01-20T05:26:22;17.20;44.30
61398;DHT22;47267;48.130;-2.040;2023-01-20T05:28:48;17.20;44.30
61398;DHT22;47267;48.130;-2.040;2023-01-20T05:31:14;17.20;44.30
61398;DHT22;47267;48.130;-2.040;2023-01-20T05:33:40;17.20;44.40
61398;DHT22;47267;48.130;-2.040;2023-01-20T05:36:06;17.20;44.30
61398;DHT22;47267;48.130;-2.040;2023-01-20T05:38:32;17.20;44.30
61398;DHT22;47267;48.130;-2.040;2023-01-20T05:41:01;17.20;44.30
61398;DHT22;47267;48.130;-2.040;2023-01-20T05:43:27;17.20;44.30
61398;DHT22;47267;48.130;-2.040;2023-01-20T05:45:53;17.20;44.30
61398;DHT22;47267;48.130;-2.040;2023-01-20T05:48:19;17.20;44.30
61398;DHT22;47267;48.130;-2.040;2023-01-20T05:50:44;17.20;44.30
61398;DHT22;47267;48.130;-2.040;2023-01-20T05:53:10;17.20;44.30
61398;DHT22;47267;48.130;-2.040;2023-01-20T05:55:35;17.20;44.20
61398;DHT22;47267;48.130;-2.040;2023-01-20T05:58:02;17.20;44.30
61398;DHT22;47267;48.130;-2.040;2023-01-20T06:00:28;17.20;44.20
61398;DHT22;47267;48.130;-2.040;2023-01-20T06:02:54;17.20;44.20
61398;DHT22;47267;48.130;-2.040;2023-01-20T06:05:20;17.20;44.20
61398;DHT22;47267;48.130;-2.040;2023-01-20T06:07:45;17.20;44.20
61398;DHT22;47267;48.130;-2.040;2023-01-20T06:10:11;17.20;44.20
61398;DHT22;47267;48.130;-2.040;2023-01-20T06:12:37;17.20;44.20
61398;DHT22;47267;48.130;-2.040;2023-01-20T06:15:03;17.20;44.20
61398;DHT22;47267;48.130;-2.040;2023-01-20T06:17:29;17.20;44.20
61398;DHT22;47267;48.130;-2.040;2023-01-20T06:19:55;17.20;44.20
61398;DHT22;47267;48.130;-2.040;2023-01-20T06:22:20;17.20;44.20
61398;DHT22;47267;48.130;-2.040;2023-01-20T06:24:46;17.20;44.20
61398;DHT22;47267;48.130;-2.040;2023-01-20T06:27:12;17.20;44.20
61398;DHT22;47267;48.130;-2.040;2023-01-20T06:29:37;17.20;44.30
61398;DHT22;47267;48.130;-2.040;2023-01-20T06:32:03;17.20;44.40
61398;DHT22;47267;48.130;-2.040;2023-01-20T06:34:29;17.20;44.50
61398;DHT22;47267;48.130;-2.040;2023-01-20T06:36:55;17.20;44.50
61398;DHT22;47267;48.130;-2.040;2023-01-20T06:39:21;17.20;44.60
61398;DHT22;47267;48.130;-2.040;2023-01-20T06:41:46;17.20;44.70
61398;DHT22;47267;48.130;-2.040;2023-01-20T06:44:12;17.20;44.80
61398;DHT22;47267;48.130;-2.040;2023-01-20T06:46:38;17.20;44.80
61398;DHT22;47267;48.130;-2.040;2023-01-20T06:49:03;17.20;44.90
61398;DHT22;47267;48.130;-2.040;2023-01-20T06:51:29;17.20;45.00
61398;DHT22;47267;48.130;-2.040;2023-01-20T06:53:56;17.20;45.10
61398;DHT22;47267;48.130;-2.040;2023-01-20T06:56:22;17.20;45.10
61398;DHT22;47267;48.130;-2.040;2023-01-20T06:58:48;17.20;45.20
61398;DHT22;47267;48.130;-2.040;2023-01-20T07:01:27;17.30;45.30
61398;DHT22;47267;48.130;-2.040;2023-01-20T07:03:53;17.30;45.40
61398;DHT22;47267;48.130;-2.040;2023-01-20T07:06:32;17.30;45.40
61398;DHT22;47267;48.130;-2.040;2023-01-20T07:08:59;17.30;45.60
61398;DHT22;47267;48.130;-2.040;2023-01-20T07:11:25;17.30;45.70
61398;DHT22;47267;48.130;-2.040;2023-01-20T09:08:46;17.30;45.50
61398;DHT22;47267;48.130;-2.040;2023-01-20T09:11:17;18.30;47.30
61398;DHT22;47267;48.130;-2.040;2023-01-20T09:13:43;18.30;46.80
61398;DHT22;47267;48.130;-2.040;2023-01-20T09:16:18;18.30;46.80
61398;DHT22;47267;48.130;-2.040;2023-01-20T09:18:44;18.30;46.80
61398;DHT22;47267;48.130;-2.040;2023-01-20T09:21:09;18.30;46.70
61398;DHT22;47267;48.130;-2.040;2023-01-20T09:23:37;18.30;46.70
61398;DHT22;47267;48.130;-2.040;2023-01-20T09:26:04;18.30;46.70
61398;DHT22;47267;48.130;-2.040;2023-01-20T09:28:30;18.30;46.60
61398;DHT22;47267;48.130;-2.040;2023-01-20T09:31:07;18.30;46.60
61398;DHT22;47267;48.130;-2.040;2023-01-20T09:33:35;18.30;46.20
61398;DHT22;47267;48.130;-2.040;2023-01-20T09:36:03;18.30;46.50
61398;DHT22;47267;48.130;-2.040;2023-01-20T09:38:29;18.30;46.50
61398;DHT22;47267;48.130;-2.040;2023-01-20T09:41:26;18.30;46.40
61398;DHT22;47267;48.130;-2.040;2023-01-20T09:56:10;18.30;46.30
61398;DHT22;47267;48.130;-2.040;2023-01-20T10:01:37;18.30;46.30
61398;DHT22;47267;48.130;-2.040;2023-01-20T10:04:31;18.20;46.20
61398;DHT22;47267;48.130;-2.040;2023-01-20T10:07:27;18.30;46.20
61398;DHT22;47267;48.130;-2.040;2023-01-20T10:10:02;18.30;46.20
61398;DHT22;47267;48.130;-2.040;2023-01-20T10:12:44;18.20;46.10
61398;DHT22;47267;48.130;-2.040;2023-01-20T10:15:17;18.20;46.10
61398;DHT22;47267;48.130;-2.040;2023-01-20T10:18:01;18.20;46.00
61398;DHT22;47267;48.130;-2.040;2023-01-20T10:20:34;18.20;46.00
61398;DHT22;47267;48.130;-2.040;2023-01-20T10:23:07;18.20;46.00
61398;DHT22;47267;48.130;-2.040;2023-01-20T10:25:46;18.20;45.90
61398;DHT22;47267;48.130;-2.040;2023-01-20T10:28:15;18.20;45.90
61398;DHT22;47267;48.130;-2.040;2023-01-20T10:30:43;18.20;45.90
61398;DHT22;47267;48.130;-2.040;2023-01-20T10:33:13;18.20;45.90
61398;DHT22;47267;48.130;-2.040;2023-01-20T10:35:50;18.20;45.80
61398;DHT22;47267;48.130;-2.040;2023-01-20T10:41:18;18.10;45.80
61398;DHT22;47267;48.130;-2.040;2023-01-20T10:43:46;18.20;45.80
61398;DHT22;47267;48.130;-2.040;2023-01-20T10:57:06;18.10;45.60
61398;DHT22;47267;48.130;-2.040;2023-01-20T10:59:40;18.10;45.60
61398;DHT22;47267;48.130;-2.040;2023-01-20T11:02:28;18.00;45.50
61398;DHT22;47267;48.130;-2.040;2023-01-20T11:05:00;18.10;45.50
61398;DHT22;47267;48.130;-2.040;2023-01-20T11:07:28;18.10;45.40
61398;DHT22;47267;48.130;-2.040;2023-01-20T11:09:54;18.10;45.50
61398;DHT22;47267;48.130;-2.040;2023-01-20T11:12:23;18.10;45.50
61398;DHT22;47267;48.130;-2.040;2023-01-20T11:14:51;18.10;45.30
61398;DHT22;47267;48.130;-2.040;2023-01-20T11:17:19;18.10;45.30
61398;DHT22;47267;48.130;-2.040;2023-01-20T11:19:47;18.10;45.30
61398;DHT22;47267;48.130;-2.040;2023-01-20T11:22:33;18.10;45.20
61398;DHT22;47267;48.130;-2.040;2023-01-20T11:25:01;18.00;45.20
61398;DHT22;47267;48.130;-2.040;2023-01-20T11:27:39;18.00;45.20
61398;DHT22;47267;48.130;-2.040;2023-01-20T11:30:25;18.00;45.60
61398;DHT22;47267;48.130;-2.040;2023-01-20T11:33:18;18.00;45.00
61398;DHT22;47267;48.130;-2.040;2023-01-20T11:35:58;18.00;44.90
61398;DHT22;47267;48.130;-2.040;2023-01-20T11:38:28;18.00;45.00
61398;DHT22;47267;48.130;-2.040;2023-01-20T11:40:55;18.00;44.90
61398;DHT22;47267;48.130;-2.040;2023-01-20T11:43:34;18.00;44.90
61398;DHT22;47267;48.130;-2.040;2023-01-20T11:46:21;18.00;45.00
61398;DHT22;47267;48.130;-2.040;2023-01-20T11:48:47;18.00;44.90
61398;DHT22;47267;48.130;-2.040;2023-01-20T11:51:23;18.00;44.80
61398;DHT22;47267;48.130;-2.040;2023-01-20T11:54:06;18.00;44.80
61398;DHT22;47267;48.130;-2.040;2023-01-20T11:56:38;18.00;44.80
61398;DHT22;47267;48.130;-2.040;2023-01-20T11:59:18;18.00;44.80
61398;DHT22;47267;48.130;-2.040;2023-01-20T12:02:01;18.00;44.60
61398;DHT22;47267;48.130;-2.040;2023-01-20T12:04:53;18.00;44.70
61398;DHT22;47267;48.130;-2.040;2023-01-20T12:07:32;18.00;44.60
61398;DHT22;47267;48.130;-2.040;2023-01-20T12:10:23;18.00;44.60
61398;DHT22;47267;48.130;-2.040;2023-01-20T12:13:01;18.00;44.60
61398;DHT22;47267;48.130;-2.040;2023-01-20T12:15:32;18.00;44.60
61398;DHT22;47267;48.130;-2.040;2023-01-20T12:18:04;18.00;44.60
61398;DHT22;47267;48.130;-2.040;2023-01-20T12:20:48;18.00;44.70
61398;DHT22;47267;48.130;-2.040;2023-01-20T12:26:20;18.00;44.60
61398;DHT22;47267;48.130;-2.040;2023-01-20T12:29:06;18.00;44.60
61398;DHT22;47267;48.130;-2.040;2023-01-20T12:31:34;18.00;44.60
61398;DHT22;47267;48.130;-2.040;2023-01-20T12:34:03;18.00;44.60
61398;DHT22;47267;48.130;-2.040;2023-01-20T12:39:05;18.00;44.60
61398;DHT22;47267;48.130;-2.040;2023-01-20T12:41:40;18.00;44.60
61398;DHT22;47267;48.130;-2.040;2023-01-20T12:50:18;18.10;44.60
61398;DHT22;47267;48.130;-2.040;2023-01-20T12:55:33;18.10;44.70
61398;DHT22;47267;48.130;-2.040;2023-01-20T12:58:14;18.10;44.60
61398;DHT22;47267;48.130;-2.040;2023-01-20T13:08:59;18.10;44.60
61398;DHT22;47267;48.130;-2.040;2023-01-20T13:14:41;18.10;44.60
61398;DHT22;47267;48.130;-2.040;2023-01-20T13:20:00;18.10;44.60
61398;DHT22;47267;48.130;-2.040;2023-01-20T13:22:27;18.10;44.70
61398;DHT22;47267;48.130;-2.040;2023-01-20T13:24:57;18.10;44.60
61398;DHT22;47267;48.130;-2.040;2023-01-20T13:27:35;18.10;44.70
61398;DHT22;47267;48.130;-2.040;2023-01-20T13:30:04;18.10;44.70
61398;DHT22;47267;48.130;-2.040;2023-01-20T13:32:43;18.20;44.70
61398;DHT22;47267;48.130;-2.040;2023-01-20T13:37:55;18.10;44.60
61398;DHT22;47267;48.130;-2.040;2023-01-20T13:43:04;18.20;44.70
61398;DHT22;47267;48.130;-2.040;2023-01-20T13:48:36;18.20;44.70
61398;DHT22;47267;48.130;-2.040;2023-01-20T13:53:41;18.20;44.60
61398;DHT22;47267;48.130;-2.040;2023-01-20T13:58:51;18.20;44.60
61398;DHT22;47267;48.130;-2.040;2023-01-20T14:01:18;18.20;44.60
61398;DHT22;47267;48.130;-2.040;2023-01-20T14:03:43;18.20;44.60
61398;DHT22;47267;48.130;-2.040;2023-01-20T14:06:24;18.20;44.60
61398;DHT22;47267;48.130;-2.040;2023-01-20T14:08:52;18.20;44.60
61398;DHT22;47267;48.130;-2.040;2023-01-20T14:11:23;18.30;44.70
61398;DHT22;47267;48.130;-2.040;2023-01-20T14:13:56;18.30;44.70
61398;DHT22;47267;48.130;-2.040;2023-01-20T14:18:57;18.30;44.60
61398;DHT22;47267;48.130;-2.040;2023-01-20T14:21:26;18.30;44.60
61398;DHT22;47267;48.130;-2.040;2023-01-20T14:23:52;18.30;44.70
61398;DHT22;47267;48.130;-2.040;2023-01-20T14:26:29;18.30;44.70
61398;DHT22;47267;48.130;-2.040;2023-01-20T14:28:57;18.30;44.70
61398;DHT22;47267;48.130;-2.040;2023-01-20T14:31:34;18.30;44.70
61398;DHT22;47267;48.130;-2.040;2023-01-20T14:36:52;18.40;44.70
61398;DHT22;47267;48.130;-2.040;2023-01-20T14:39:25;18.40;44.80
61398;DHT22;47267;48.130;-2.040;2023-01-20T14:41:55;18.40;44.80
61398;DHT22;47267;48.130;-2.040;2023-01-20T14:44:23;18.50;44.90
61398;DHT22;47267;48.130;-2.040;2023-01-20T14:46:52;18.50;44.90
61398;DHT22;47267;48.130;-2.040;2023-01-20T14:49:20;18.50;44.90
61398;DHT22;47267;48.130;-2.040;2023-01-20T14:51:47;18.50;44.80
61398;DHT22;47267;48.130;-2.040;2023-01-20T14:54:27;18.50;44.90
61398;DHT22;47267;48.130;-2.040;2023-01-20T14:56:55;18.60;45.00
61398;DHT22;47267;48.130;-2.040;2023-01-20T14:59:21;18.60;45.00
61398;DHT22;47267;48.130;-2.040;2023-01-20T15:01:55;18.60;45.10
61398;DHT22;47267;48.130;-2.040;2023-01-20T15:04:24;18.60;45.10
61398;DHT22;47267;48.130;-2.040;2023-01-20T15:06:55;18.60;45.10
61398;DHT22;47267;48.130;-2.040;2023-01-20T15:09:31;18.70;45.20
61398;DHT22;47267;48.130;-2.040;2023-01-20T15:12:32;18.70;45.20
61398;DHT22;47267;48.130;-2.040;2023-01-20T15:17:31;18.80;45.30
61398;DHT22;47267;48.130;-2.040;2023-01-20T15:19:57;18.80;45.30
61398;DHT22;47267;48.130;-2.040;2023-01-20T15:22:25;18.80;45.30
61398;DHT22;47267;48.130;-2.040;2023-01-20T15:24:51;18.80;45.30
61398;DHT22;47267;48.130;-2.040;2023-01-20T15:27:29;18.80;45.30
61398;DHT22;47267;48.130;-2.040;2023-01-20T15:30:17;18.90;45.30
61398;DHT22;47267;48.130;-2.040;2023-01-20T15:32:45;18.90;45.30
61398;DHT22;47267;48.130;-2.040;2023-01-20T15:35:15;18.90;45.30
61398;DHT22;47267;48.130;-2.040;2023-01-20T15:37:42;18.90;45.30
61398;DHT22;47267;48.130;-2.040;2023-01-20T15:40:17;18.90;45.30
61398;DHT22;47267;48.130;-2.040;2023-01-20T15:42:43;19.00;45.30
61398;DHT22;47267;48.130;-2.040;2023-01-20T15:45:12;19.00;45.20
61398;DHT22;47267;48.130;-2.040;2023-01-20T15:47:39;19.00;45.20
61398;DHT22;47267;48.130;-2.040;2023-01-20T15:50:15;19.00;45.20
61398;DHT22;47267;48.130;-2.040;2023-01-20T15:52:41;19.00;45.20
61398;DHT22;47267;48.130;-2.040;2023-01-20T15:55:11;19.10;45.20
61398;DHT22;47267;48.130;-2.040;2023-01-20T15:57:37;19.10;45.20
61398;DHT22;47267;48.130;-2.040;2023-01-20T16:00:04;19.10;45.20
61398;DHT22;47267;48.130;-2.040;2023-01-20T16:02:31;19.10;45.20
61398;DHT22;47267;48.130;-2.040;2023-01-20T16:04:57;19.10;45.20
61398;DHT22;47267;48.130;-2.040;2023-01-20T16:07:22;19.10;45.20
61398;DHT22;47267;48.130;-2.040;2023-01-20T16:09:48;19.10;45.10
61398;DHT22;47267;48.130;-2.040;2023-01-20T16:12:16;19.10;45.40
61398;DHT22;47267;48.130;-2.040;2023-01-20T16:14:42;19.10;45.20
61398;DHT22;47267;48.130;-2.040;2023-01-20T16:17:13;19.10;45.30
61398;DHT22;47267;48.130;-2.040;2023-01-20T16:19:39;19.20;45.30
61398;DHT22;47267;48.130;-2.040;2023-01-20T16:22:05;19.20;45.30
61398;DHT22;47267;48.130;-2.040;2023-01-20T16:24:31;19.20;45.30
61398;DHT22;47267;48.130;-2.040;2023-01-20T16:26:58;19.20;45.40
61398;DHT22;47267;48.130;-2.040;2023-01-20T16:29:23;19.20;45.30
61398;DHT22;47267;48.130;-2.040;2023-01-20T16:31:49;19.20;45.40
61398;DHT22;47267;48.130;-2.040;2023-01-20T16:34:15;19.20;45.40
61398;DHT22;47267;48.130;-2.040;2023-01-20T16:36:40;19.20;45.40
61398;DHT22;47267;48.130;-2.040;2023-01-20T16:39:06;19.20;45.40
61398;DHT22;47267;48.130;-2.040;2023-01-20T16:41:32;19.20;45.40
61398;DHT22;47267;48.130;-2.040;2023-01-20T16:44:00;19.20;45.40
61398;DHT22;47267;48.130;-2.040;2023-01-20T16:46:28;19.20;45.30
61398;DHT22;47267;48.130;-2.040;2023-01-20T16:48:54;19.20;45.40
61398;DHT22;47267;48.130;-2.040;2023-01-20T16:51:30;19.20;45.40
61398;DHT22;47267;48.130;-2.040;2023-01-20T16:53:57;19.30;45.40
61398;DHT22;47267;48.130;-2.040;2023-01-20T16:56:27;19.30;45.40
61398;DHT22;47267;48.130;-2.040;2023-01-20T16:58:55;19.30;45.50
61398;DHT22;47267;48.130;-2.040;2023-01-20T17:01:25;19.30;45.40
61398;DHT22;47267;48.130;-2.040;2023-01-20T17:03:53;19.30;45.40
61398;DHT22;47267;48.130;-2.040;2023-01-20T17:06:21;19.30;45.60
61398;DHT22;47267;48.130;-2.040;2023-01-20T17:08:49;19.30;45.60
61398;DHT22;47267;48.130;-2.040;2023-01-20T17:11:23;19.30;45.60
61398;DHT22;47267;48.130;-2.040;2023-01-20T17:13:50;19.30;45.60
61398;DHT22;47267;48.130;-2.040;2023-01-20T17:16:16;19.30;45.60
61398;DHT22;47267;48.130;-2.040;2023-01-20T17:18:42;19.30;45.60
61398;DHT22;47267;48.130;-2.040;2023-01-20T17:21:12;19.40;45.60
